Songa Wave — ZGGP4 — position and weather

sailwx.info

Track history (hours):
 
Tides and Currents Weather Stations Pressure Air Temp Water Temp Dewpoint Dewpoint Depression Visibility Wind Speed Wind Dir Waves Ship Positions

Songa Wave

Last reported at 2017-Oct-10 12:17 UTC. Time now 2017-Oct-17 13:14 UTC.
Position N 28°46' W 116°26'.

Length 200 m; draft 12 m.

Type: Cargo ship. MMSI: 319116900.

Date/timePositionNaut miles runAvg speedWind from/ knotsBaromVisibWave heightAir tempDewpointWater temp
2017-Oct-10 12:17N 28°46' W 116°26'413.5
2017-Oct-10 11:59N 28°50' W 116°27'2313.2
2017-Oct-10 10:16N 29°12' W 116°34'18113.1
2017-Oct-09 20:27N 32°07' W 117°28'612.6
2017-Oct-09 20:00N 32°12' W 117°30'612.0
2017-Oct-09 19:30N 32°18' W 117°32'612.3
2017-Oct-09 19:00N 32°24' W 117°34'612.3
2017-Oct-09 18:30N 32°30' W 117°36'611.7
2017-Oct-09 18:00N 32°36' W 117°38'611.8
2017-Oct-09 17:30N 32°41' W 117°41'612.0
2017-Oct-09 17:00N 32°46' W 117°44'611.9
2017-Oct-09 16:30N 32°51' W 117°48'611.8
2017-Oct-09 16:00N 32°57' W 117°51'611.6
2017-Oct-09 15:30N 33°02' W 117°55'611.8
2017-Oct-09 15:00N 33°07' W 117°58'611.8
2017-Oct-09 14:30N 33°12' W 118°02'611.9
2017-Oct-09 14:00N 33°17' W 118°05'612.0
2017-Oct-09 13:30N 33°23' W 118°08'611.7
2017-Oct-09 13:00N 33°28' W 118°10'611.8
2017-Oct-09 12:30N 33°34' W 118°12'810.5
2017-Oct-09 11:44N 33°42' W 118°12'2 5.9
2017-Oct-09 11:23N 33°44' W 118°12'1 0.1
2017-Oct-09 03:19N 33°45' W 118°12'0 0.0
2017-Oct-09 02:31N 33°45' W 118°12'0 0.0
2017-Oct-09 02:13N 33°45' W 118°12'0 0.0
2017-Oct-09 01:58N 33°45' W 118°12'0 0.0
2017-Oct-09 01:25N 33°45' W 118°12'0 0.0
2017-Oct-09 00:31N 33°45' W 118°12'0 0.0
2017-Oct-09 00:28N 33°45' W 118°12'0 0.0
2017-Oct-08 23:19N 33°45' W 118°12'0 0.0
2017-Oct-08 22:55N 33°45' W 118°12'0 0.0
2017-Oct-08 22:28N 33°45' W 118°12'0 0.0
2017-Oct-08 21:55N 33°45' W 118°12'0 0.0
2017-Oct-08 20:37N 33°45' W 118°12'0 0.0
2017-Oct-08 20:25N 33°45' W 118°12'0 0.0
2017-Oct-08 19:10N 33°45' W 118°12'0 0.0
2017-Oct-08 18:55N 33°45' W 118°12'0 0.0
2017-Oct-08 18:22N 33°45' W 118°12'0 0.0
2017-Oct-08 17:43N 33°45' W 118°12'0 0.0
2017-Oct-08 17:28N 33°45' W 118°12'0 0.0
2017-Oct-08 16:58N 33°45' W 118°12'0 0.0
2017-Oct-08 16:25N 33°45' W 118°12'0 0.0
2017-Oct-08 15:52N 33°45' W 118°12'0 0.0
2017-Oct-08 15:25N 33°45' W 118°12'0 0.0
2017-Oct-08 14:55N 33°45' W 118°12'0 0.0
2017-Oct-08 14:28N 33°45' W 118°12'0 0.0
2017-Oct-08 13:58N 33°45' W 118°12'0 0.0
2017-Oct-08 13:28N 33°45' W 118°12'0 0.0
2017-Oct-08 12:55N 33°45' W 118°12'0 0.0
2017-Oct-08 12:28N 33°45' W 118°12'0 0.0
2017-Oct-08 11:58N 33°45' W 118°12'0 0.0
2017-Oct-08 11:28N 33°45' W 118°12'0 0.0
2017-Oct-08 10:58N 33°45' W 118°12'0 0.0
2017-Oct-08 10:28N 33°45' W 118°12'0 0.0
2017-Oct-08 09:58N 33°45' W 118°12'0 0.0
2017-Oct-08 09:28N 33°45' W 118°12'0 0.1
2017-Oct-08 09:01N 33°45' W 118°12'2 3.2
2017-Oct-08 08:30N 33°44' W 118°11'5 9.9
2017-Oct-08 08:00N 33°39' W 118°11'510.4
2017-Oct-08 07:31N 33°36' W 118°16'611.5
2017-Oct-08 07:00N 33°37' W 118°23'611.7
2017-Oct-08 06:30N 33°40' W 118°29'611.9
2017-Oct-08 06:00N 33°43' W 118°36'611.8
2017-Oct-08 05:30N 33°46' W 118°42'611.9
2017-Oct-08 05:00N 33°49' W 118°48'611.8
2017-Oct-08 04:30N 33°52' W 118°54'611.8
2017-Oct-08 04:00N 33°55' W 119°00'611.8
2017-Oct-08 03:30N 33°58' W 119°06'611.7
2017-Oct-08 03:00N 34°01' W 119°13'611.8
2017-Oct-08 02:30N 34°03' W 119°19'611.7
2017-Oct-08 02:00N 34°05' W 119°26'611.7
2017-Oct-08 01:30N 34°06' W 119°33'612.1
2017-Oct-08 01:00N 34°08' W 119°40'612.0
2017-Oct-08 00:30N 34°09' W 119°47'611.7
2017-Oct-07 23:59N 34°11' W 119°54'612.0
2017-Oct-07 23:30N 34°12' W 120°00'612.0
2017-Oct-07 23:00N 34°14' W 120°07'612.1
2017-Oct-07 22:29N 34°16' W 120°15'712.1
2017-Oct-07 21:56N 34°18' W 120°22'511.6
2017-Oct-07 21:28N 34°19' W 120°29'611.6
2017-Oct-07 21:00N 34°20' W 120°35'1611.4
2017-Oct-07 19:35N 34°25' W 120°54'311.7
2017-Oct-07 19:22N 34°27' W 120°55'412.2
2017-Oct-07 19:00N 34°32' W 120°57'611.3
2017-Oct-07 18:29N 34°37' W 120°60'612.4
2017-Oct-07 17:58N 34°43' W 121°03'511.4
2017-Oct-07 17:30N 34°48' W 121°05'611.9
2017-Oct-07 17:00N 34°53' W 121°08'611.4
2017-Oct-07 16:30N 34°59' W 121°10'611.8
2017-Oct-07 16:00N 35°03' W 121°15'611.8
2017-Oct-07 15:30N 35°08' W 121°20'611.5
2017-Oct-07 15:00N 35°12' W 121°24'611.8
2017-Oct-07 14:30N 35°16' W 121°29'611.7
2017-Oct-07 14:01N 35°21' W 121°34'612.2
2017-Oct-07 13:30N 35°25' W 121°39'711.7
2017-Oct-07 12:56N 35°30' W 121°45'511.6
2017-Oct-07 12:30N 35°34' W 121°49'612.0
2017-Oct-07 11:58N 35°38' W 121°54'612.1
2017-Oct-07 11:30N 35°43' W 121°59'612.0
2017-Oct-07 11:00N 35°47' W 122°04'611.5
2017-Oct-07 10:30N 35°51' W 122°08'611.8
2017-Oct-07 09:59N 35°56' W 122°14'611.9
2017-Oct-07 09:30N 36°00' W 122°18'611.6
2017-Oct-07 09:00N 36°04' W 122°23'612.0
2017-Oct-07 08:30N 36°09' W 122°28'611.9
2017-Oct-07 08:00N 36°13' W 122°33'611.9
2017-Oct-07 07:30N 36°18' W 122°38'611.8
2017-Oct-07 07:00N 36°22' W 122°43'611.8
2017-Oct-07 06:30N 36°26' W 122°48'613.1
2017-Oct-07 06:01N 36°31' W 122°53'713.7
2017-Oct-07 05:30N 36°36' W 122°59'713.6
2017-Oct-07 05:00N 36°41' W 123°05'713.6
2017-Oct-07 04:30N 36°46' W 123°11'713.6
2017-Oct-07 04:00N 36°51' W 123°16'713.6
2017-Oct-07 03:31N 36°56' W 123°22'713.8
2017-Oct-07 03:00N 37°01' W 123°28'713.8
2017-Oct-07 02:31N 37°07' W 123°33'713.7
2017-Oct-07 02:00N 37°13' W 123°37'713.8
2017-Oct-07 01:30N 37°19' W 123°41'714.0
2017-Oct-07 01:00N 37°25' W 123°45'713.8
2017-Oct-07 00:30N 37°32' W 123°49'713.7
2017-Oct-07 00:00N 37°38' W 123°52'714.1
2017-Oct-06 23:31N 37°44' W 123°56'713.8
2017-Oct-06 23:00N 37°50' W 124°00'713.4
2017-Oct-06 22:30N 37°56' W 124°04'713.6
2017-Oct-06 22:01N 38°02' W 124°08'713.9
2017-Oct-06 21:30N 38°08' W 124°12'713.8
2017-Oct-06 21:00N 38°15' W 124°16'713.4
2017-Oct-06 20:30N 38°21' W 124°20'713.8
2017-Oct-06 20:00N 38°27' W 124°24'713.4
2017-Oct-06 19:30N 38°33' W 124°28'713.5
2017-Oct-06 19:01N 38°39' W 124°32'713.7
2017-Oct-06 18:30N 38°45' W 124°35'713.9
2017-Oct-06 18:00N 38°52' W 124°38'713.6
2017-Oct-06 17:30N 38°58' W 124°41'713.4
2017-Oct-06 17:00N 39°04' W 124°44'612.9
2017-Oct-06 16:29N 39°11' W 124°47'612.3
2017-Oct-06 16:00N 39°16' W 124°49'15713.4
2017-Oct-06 04:17N 41°52' W 125°12'414.0
2017-Oct-06 04:00N 41°56' W 125°13'713.7
2017-Oct-06 03:30N 42°03' W 125°13'713.7
2017-Oct-06 03:00N 42°10' W 125°12'713.4
2017-Oct-06 02:31N 42°16' W 125°13'713.5
2017-Oct-06 02:00N 42°23' W 125°13'713.8
2017-Oct-06 01:30N 42°30' W 125°14'713.9
2017-Oct-06 01:00N 42°37' W 125°14'714.0
2017-Oct-06 00:30N 42°44' W 125°15'714.1
2017-Oct-06 00:00N 42°51' W 125°15'713.4
2017-Oct-05 23:30N 42°58' W 125°15'713.7
2017-Oct-05 23:00N 43°04' W 125°16'714.1
2017-Oct-05 22:30N 43°12' W 125°16'714.0
2017-Oct-05 22:00N 43°19' W 125°16'713.6
2017-Oct-05 21:30N 43°25' W 125°16'713.0
2017-Oct-05 21:00N 43°32' W 125°16'713.1
2017-Oct-05 20:30N 43°38' W 125°17'713.6
2017-Oct-05 19:59N 43°45' W 125°17'713.7
2017-Oct-05 19:30N 43°52' W 125°17'713.7
2017-Oct-05 19:01N 43°59' W 125°17'713.7
2017-Oct-05 18:31N 44°06' W 125°17'1013.5
2017-Oct-05 17:45N 44°16' W 125°18'313.6
2017-Oct-05 17:30N 44°19' W 125°18'713.5
2017-Oct-05 17:00N 44°26' W 125°18'2013.5
2017-Oct-05 15:30N 44°46' W 125°19'714.0
2017-Oct-05 15:01N 44°53' W 125°19'714.1
2017-Oct-05 14:31N 45°00' W 125°19'714.0
2017-Oct-05 14:00N 45°07' W 125°19'814.0
2017-Oct-05 13:28N 45°15' W 125°19'614.0
2017-Oct-05 13:01N 45°21' W 125°19'714.0
2017-Oct-05 12:31N 45°28' W 125°20'914.2
2017-Oct-05 11:51N 45°38' W 125°20'514.2
2017-Oct-05 11:31N 45°42' W 125°20'914.2
2017-Oct-05 10:51N 45°52' W 125°21'514.3
2017-Oct-05 10:31N 45°57' W 125°21'714.5
2017-Oct-05 10:01N 46°04' W 125°22'714.5
2017-Oct-05 09:31N 46°11' W 125°21'714.4
2017-Oct-05 09:01N 46°18' W 125°21'714.3
2017-Oct-05 08:30N 46°25' W 125°21'1014.1
2017-Oct-05 07:48N 46°35' W 125°22'414.1
2017-Oct-05 07:31N 46°40' W 125°22'714.1
2017-Oct-05 07:01N 46°47' W 125°22'714.0
2017-Oct-05 06:30N 46°54' W 125°22'1113.9
2017-Oct-05 05:42N 47°05' W 125°23'313.9
2017-Oct-05 05:30N 47°08' W 125°23'814.1
2017-Oct-05 04:56N 47°16' W 125°23'614.2
2017-Oct-05 04:30N 47°22' W 125°23'713.9
2017-Oct-05 04:00N 47°29' W 125°23'714.1
2017-Oct-05 03:30N 47°36' W 125°24'714.2
2017-Oct-05 03:01N 47°43' W 125°24'714.0
2017-Oct-05 02:30N 47°50' W 125°24'714.0
2017-Oct-05 02:00N 47°57' W 125°24'713.7
2017-Oct-05 01:30N 48°03' W 125°20'713.8
2017-Oct-05 01:00N 48°10' W 125°17'714.2
2017-Oct-05 00:30N 48°17' W 125°14'510.3
2017-Oct-05 00:00N 48°22' W 125°13'5 9.4
2017-Oct-04 23:30N 48°25' W 125°08'612.8
2017-Oct-04 23:00N 48°30' W 125°02'713.6
2017-Oct-04 22:30N 48°31' W 124°51'713.8
2017-Oct-04 22:00N 48°30' W 124°41'713.5
2017-Oct-04 21:31N 48°27' W 124°32'612.9
2017-Oct-04 21:00N 48°25' W 124°23'4 7.9
2017-Oct-04 20:30N 48°23' W 124°17'612.6
2017-Oct-04 20:00N 48°21' W 124°08'612.3
2017-Oct-04 19:30N 48°19' W 123°60'713.1
2017-Oct-04 19:00N 48°17' W 123°50'713.5
2017-Oct-04 18:30N 48°16' W 123°40'612.9
2017-Oct-04 18:00N 48°16' W 123°30'612.2
2017-Oct-04 17:30N 48°22' W 123°25'5 9.3
2017-Oct-04 17:01N 48°23' W 123°19'510.5
2017-Oct-04 16:31N 48°25' W 123°12'713.8
2017-Oct-04 16:00N 48°32' W 123°13'713.8
2017-Oct-04 15:30N 48°39' W 123°15'612.7
2017-Oct-04 15:00N 48°44' W 123°09'714.5
2017-Oct-04 14:30N 48°48' W 123°00'714.4
2017-Oct-04 14:00N 48°54' W 123°08'714.5
2017-Oct-04 13:30N 48°59' W 123°16'713.8
2017-Oct-04 13:00N 49°04' W 123°23'713.7
2017-Oct-04 12:30N 49°11' W 123°22'713.5
2017-Oct-04 12:00N 49°17' W 123°19'612.4
2017-Oct-04 11:30N 49°19' W 123°10'2 4.7
2017-Oct-04 10:59N 49°18' W 123°07'0 0.0
2017-Oct-04 10:29N 49°18' W 123°07'0 0.0
2017-Oct-04 09:59N 49°18' W 123°07'0 0.0
2017-Oct-04 09:29N 49°19' W 123°07'0 0.0
2017-Oct-04 08:59N 49°18' W 123°07'0 0.0
2017-Oct-04 08:29N 49°18' W 123°07'0 0.0
2017-Oct-04 07:59N 49°19' W 123°07'0 0.0
2017-Oct-04 07:29N 49°18' W 123°07'0 0.0
2017-Oct-04 06:59N 49°19' W 123°07'0 0.0
2017-Oct-04 06:29N 49°19' W 123°07'0 0.0
2017-Oct-04 05:59N 49°19' W 123°07'0 0.0
2017-Oct-04 05:29N 49°19' W 123°07'0 0.0
2017-Oct-04 04:59N 49°19' W 123°07'0 0.0
2017-Oct-04 04:29N 49°18' W 123°07'0 0.0
2017-Oct-04 03:59N 49°19' W 123°07'0 0.0
2017-Oct-04 03:29N 49°18' W 123°07'0 0.0
2017-Oct-04 02:59N 49°19' W 123°07'0 0.0
2017-Oct-04 02:29N 49°18' W 123°07'0 0.0
2017-Oct-04 01:59N 49°19' W 123°07'0 0.0
2017-Oct-04 01:29N 49°18' W 123°07'0 0.0
2017-Oct-04 00:59N 49°18' W 123°07'0 0.0
2017-Oct-04 00:29N 49°18' W 123°07'0 0.0
2017-Oct-03 23:59N 49°18' W 123°07'0 0.0
2017-Oct-03 23:29N 49°18' W 123°07'0 0.0
2017-Oct-03 22:59N 49°18' W 123°07'0 0.0
2017-Oct-03 22:29N 49°18' W 123°07'0 0.0
2017-Oct-03 21:59N 49°18' W 123°07'0 0.0
2017-Oct-03 21:29N 49°19' W 123°07'0 0.0
2017-Oct-03 20:59N 49°18' W 123°07'0 0.0
2017-Oct-03 20:29N 49°18' W 123°07'0 0.0
2017-Oct-03 19:59N 49°18' W 123°07'0 0.0
2017-Oct-03 19:29N 49°18' W 123°07'0 0.0
2017-Oct-03 18:59N 49°18' W 123°07'0 0.0
2017-Oct-03 18:29N 49°18' W 123°07'0 0.0
2017-Oct-03 17:59N 49°19' W 123°07'0 0.0
2017-Oct-03 17:29N 49°19' W 123°07'0 0.0
2017-Oct-03 16:59N 49°19' W 123°07'0 0.0
2017-Oct-03 16:29N 49°18' W 123°07'0 0.0
2017-Oct-03 15:59N 49°18' W 123°07'0 0.0
2017-Oct-03 15:29N 49°18' W 123°07'0 0.0
2017-Oct-03 14:59N 49°18' W 123°07'0 0.0
2017-Oct-03 13:59N 49°18' W 123°07'0 0.0
2017-Oct-03 13:29N 49°18' W 123°07'0 0.0
2017-Oct-03 12:59N 49°18' W 123°07'0 0.0
2017-Oct-03 12:29N 49°19' W 123°07'0 0.0
2017-Oct-03 11:59N 49°18' W 123°07'0 0.0
2017-Oct-03 11:29N 49°18' W 123°07'0 0.0
2017-Oct-03 10:59N 49°19' W 123°07'0 0.0
2017-Oct-03 10:29N 49°19' W 123°07'0 0.0
2017-Oct-03 09:59N 49°18' W 123°07'0 0.0
2017-Oct-03 09:29N 49°19' W 123°07'0 0.0
2017-Oct-03 08:59N 49°19' W 123°07'0 0.0
2017-Oct-03 08:29N 49°18' W 123°07'0 0.0
2017-Oct-03 07:59N 49°18' W 123°07'0 0.0
2017-Oct-03 07:29N 49°19' W 123°07'0 0.0
2017-Oct-03 06:59N 49°18' W 123°07'0 0.0
2017-Oct-03 06:29N 49°18' W 123°07'0 0.0
2017-Oct-03 05:59N 49°18' W 123°07'0 0.0
2017-Oct-03 05:29N 49°18' W 123°07'0 0.0
2017-Oct-03 04:59N 49°19' W 123°07'0 0.0
2017-Oct-03 04:29N 49°18' W 123°07'0 0.0
2017-Oct-03 03:59N 49°18' W 123°07'0 0.0
2017-Oct-03 03:29N 49°19' W 123°07'0 0.0
2017-Oct-03 02:59N 49°18' W 123°07'0 0.0
2017-Oct-03 02:26N 49°19' W 123°07'0 0.0
2017-Oct-03 01:59N 49°18' W 123°07'0 0.0
2017-Oct-03 01:29N 49°18' W 123°07'0 0.0
2017-Oct-03 00:59N 49°18' W 123°07'0 0.0
2017-Oct-03 00:29N 49°19' W 123°07'0 0.0
2017-Oct-02 23:59N 49°19' W 123°07'0 0.0
2017-Oct-02 23:29N 49°18' W 123°07'0 0.0
2017-Oct-02 22:59N 49°18' W 123°07'0 0.0
2017-Oct-02 22:29N 49°18' W 123°07'0 0.0
2017-Oct-02 21:56N 49°19' W 123°07'0 0.0
2017-Oct-02 21:29N 49°19' W 123°07'0 0.0
2017-Oct-02 20:59N 49°18' W 123°07'0 0.1
2017-Oct-02 20:29N 49°19' W 123°06'0 0.0
2017-Oct-02 19:59N 49°19' W 123°06'0 0.0
2017-Oct-02 19:29N 49°19' W 123°06'0 0.0
2017-Oct-02 18:59N 49°19' W 123°06'0 0.0
2017-Oct-02 18:29N 49°19' W 123°06'0 0.0
2017-Oct-02 17:59N 49°19' W 123°06'0 0.0
2017-Oct-02 17:29N 49°19' W 123°06'0 0.0
2017-Oct-02 16:59N 49°19' W 123°06'0 0.0
2017-Oct-02 16:29N 49°19' W 123°06'0 0.0
2017-Oct-02 15:59N 49°19' W 123°06'0 0.0
2017-Oct-02 15:29N 49°19' W 123°06'0 0.0
2017-Oct-02 14:59N 49°19' W 123°06'0 0.0
2017-Oct-02 14:29N 49°19' W 123°06'0 0.0
2017-Oct-02 13:59N 49°19' W 123°06'0 0.0
2017-Oct-02 13:29N 49°19' W 123°06'0 0.0
2017-Oct-02 12:59N 49°19' W 123°06'0 0.0
2017-Oct-02 12:29N 49°19' W 123°06'0 0.0
2017-Oct-02 11:59N 49°19' W 123°06'0 0.0
2017-Oct-02 11:29N 49°19' W 123°06'0 0.0
2017-Oct-02 10:59N 49°19' W 123°06'0 0.0
2017-Oct-02 10:29N 49°19' W 123°06'0 0.0
2017-Oct-02 09:59N 49°19' W 123°06'0 0.0
2017-Oct-02 09:29N 49°19' W 123°06'0 0.0
2017-Oct-02 08:59N 49°19' W 123°06'0 0.0
2017-Oct-02 08:29N 49°19' W 123°06'0 0.0
2017-Oct-02 07:59N 49°19' W 123°06'0 0.0
2017-Oct-02 07:29N 49°19' W 123°06'0 0.0
2017-Oct-02 06:59N 49°19' W 123°06'0 0.0
2017-Oct-02 06:29N 49°19' W 123°06'0 0.0
2017-Oct-02 05:59N 49°19' W 123°06'0 0.0
2017-Oct-02 05:29N 49°19' W 123°06'0 0.0
2017-Oct-02 04:59N 49°19' W 123°06'0 0.0
2017-Oct-02 04:29N 49°19' W 123°06'0 0.0
2017-Oct-02 03:59N 49°19' W 123°06'0 0.0
2017-Oct-02 03:29N 49°19' W 123°06'0 0.0
2017-Oct-02 02:59N 49°19' W 123°06'0 0.0
2017-Oct-02 02:29N 49°19' W 123°06'0 0.0
2017-Oct-02 01:59N 49°19' W 123°06'0 0.0
2017-Oct-02 01:29N 49°19' W 123°06'0 0.0
2017-Oct-02 00:59N 49°19' W 123°06'0 0.0
2017-Oct-02 00:29N 49°19' W 123°06'0 0.0
2017-Oct-01 23:59N 49°19' W 123°06'0 0.0
2017-Oct-01 23:29N 49°19' W 123°06'0 0.0
2017-Oct-01 22:59N 49°19' W 123°06'0 0.0
2017-Oct-01 22:29N 49°19' W 123°06'0 0.0
2017-Oct-01 21:59N 49°19' W 123°06'0 0.0
2017-Oct-01 21:29N 49°19' W 123°06'0 0.0
2017-Oct-01 20:59N 49°19' W 123°06'0 0.0
2017-Oct-01 20:29N 49°19' W 123°06'0 0.0
2017-Oct-01 19:59N 49°19' W 123°06'0 0.0
2017-Oct-01 19:29N 49°19' W 123°06'0 0.0
2017-Oct-01 18:59N 49°19' W 123°06'0 0.0
2017-Oct-01 18:29N 49°19' W 123°06'0 0.0
2017-Oct-01 17:59N 49°19' W 123°06'0 0.0
2017-Oct-01 17:29N 49°19' W 123°06'0 0.0
2017-Oct-01 16:59N 49°19' W 123°06'0 0.0
2017-Oct-01 16:29N 49°19' W 123°06'0 0.0
2017-Oct-01 15:59N 49°19' W 123°06'0 0.0
2017-Oct-01 15:29N 49°19' W 123°06'0 0.0
2017-Oct-01 14:59N 49°19' W 123°06'0 0.0
2017-Oct-01 14:29N 49°19' W 123°06'0 0.0
2017-Oct-01 13:59N 49°19' W 123°06'0 0.0
2017-Oct-01 13:29N 49°19' W 123°06'0 0.0
2017-Oct-01 12:59N 49°19' W 123°06'0 0.0
2017-Oct-01 12:29N 49°19' W 123°06'0 0.0
2017-Oct-01 11:59N 49°19' W 123°06'0 0.0
2017-Oct-01 11:29N 49°19' W 123°06'0 0.0
2017-Oct-01 10:59N 49°19' W 123°06'0 0.0
2017-Oct-01 10:29N 49°19' W 123°06'0 0.0
2017-Oct-01 09:59N 49°19' W 123°06'0 0.0
2017-Oct-01 09:29N 49°19' W 123°06'0 0.0
2017-Oct-01 08:59N 49°19' W 123°06'0 0.0
2017-Oct-01 08:29N 49°19' W 123°06'0 0.0
2017-Oct-01 07:59N 49°19' W 123°06'0 0.0
2017-Oct-01 07:29N 49°19' W 123°06'0 0.0
2017-Oct-01 06:59N 49°19' W 123°06'0 0.0
2017-Oct-01 06:29N 49°19' W 123°06'0 0.0
2017-Oct-01 05:59N 49°19' W 123°06'0 0.0
2017-Oct-01 05:29N 49°19' W 123°06'0 0.0
2017-Oct-01 04:59N 49°19' W 123°06'0 0.0
2017-Oct-01 04:29N 49°19' W 123°06'0 0.0
2017-Oct-01 03:59N 49°19' W 123°06'0 0.0
2017-Oct-01 03:29N 49°19' W 123°06'0 0.0
2017-Oct-01 02:59N 49°19' W 123°06'  
Track history (hours):
 
Tides and Currents Weather Stations Pressure Air Temp Water Temp Dewpoint Dewpoint Depression Visibility Wind Speed Wind Dir Waves Ship Positions

Songa Wave

Last reported at 2017-Oct-10 12:17 UTC. Time now 2017-Oct-17 13:14 UTC.
Position N 28°46' W 116°26'.

Length 200 m; draft 12 m.

Type: Cargo ship. MMSI: 319116900.

Date/timePositionNaut miles runAvg speedWind from/ knotsBaromVisibWave heightAir tempDewpointWater temp
2017-Oct-10 12:17N 28°46' W 116°26'413.5
2017-Oct-10 11:59N 28°50' W 116°27'2313.2
2017-Oct-10 10:16N 29°12' W 116°34'18113.1
2017-Oct-09 20:27N 32°07' W 117°28'612.6
2017-Oct-09 20:00N 32°12' W 117°30'612.0
2017-Oct-09 19:30N 32°18' W 117°32'612.3
2017-Oct-09 19:00N 32°24' W 117°34'612.3
2017-Oct-09 18:30N 32°30' W 117°36'611.7
2017-Oct-09 18:00N 32°36' W 117°38'611.8
2017-Oct-09 17:30N 32°41' W 117°41'612.0
2017-Oct-09 17:00N 32°46' W 117°44'611.9
2017-Oct-09 16:30N 32°51' W 117°48'611.8
2017-Oct-09 16:00N 32°57' W 117°51'611.6
2017-Oct-09 15:30N 33°02' W 117°55'611.8
2017-Oct-09 15:00N 33°07' W 117°58'611.8
2017-Oct-09 14:30N 33°12' W 118°02'611.9
2017-Oct-09 14:00N 33°17' W 118°05'612.0
2017-Oct-09 13:30N 33°23' W 118°08'611.7
2017-Oct-09 13:00N 33°28' W 118°10'611.8
2017-Oct-09 12:30N 33°34' W 118°12'810.5
2017-Oct-09 11:44N 33°42' W 118°12'2 5.9
2017-Oct-09 11:23N 33°44' W 118°12'1 0.1
2017-Oct-09 03:19N 33°45' W 118°12'0 0.0
2017-Oct-09 02:31N 33°45' W 118°12'0 0.0
2017-Oct-09 02:13N 33°45' W 118°12'0 0.0
2017-Oct-09 01:58N 33°45' W 118°12'0 0.0
2017-Oct-09 01:25N 33°45' W 118°12'0 0.0
2017-Oct-09 00:31N 33°45' W 118°12'0 0.0
2017-Oct-09 00:28N 33°45' W 118°12'0 0.0
2017-Oct-08 23:19N 33°45' W 118°12'0 0.0
2017-Oct-08 22:55N 33°45' W 118°12'0 0.0
2017-Oct-08 22:28N 33°45' W 118°12'0 0.0
2017-Oct-08 21:55N 33°45' W 118°12'0 0.0
2017-Oct-08 20:37N 33°45' W 118°12'0 0.0
2017-Oct-08 20:25N 33°45' W 118°12'0 0.0
2017-Oct-08 19:10N 33°45' W 118°12'0 0.0
2017-Oct-08 18:55N 33°45' W 118°12'0 0.0
2017-Oct-08 18:22N 33°45' W 118°12'0 0.0
2017-Oct-08 17:43N 33°45' W 118°12'0 0.0
2017-Oct-08 17:28N 33°45' W 118°12'0 0.0
2017-Oct-08 16:58N 33°45' W 118°12'0 0.0
2017-Oct-08 16:25N 33°45' W 118°12'0 0.0
2017-Oct-08 15:52N 33°45' W 118°12'0 0.0
2017-Oct-08 15:25N 33°45' W 118°12'0 0.0
2017-Oct-08 14:55N 33°45' W 118°12'0 0.0
2017-Oct-08 14:28N 33°45' W 118°12'0 0.0
2017-Oct-08 13:58N 33°45' W 118°12'0 0.0
2017-Oct-08 13:28N 33°45' W 118°12'0 0.0
2017-Oct-08 12:55N 33°45' W 118°12'0 0.0
2017-Oct-08 12:28N 33°45' W 118°12'0 0.0
2017-Oct-08 11:58N 33°45' W 118°12'0 0.0
2017-Oct-08 11:28N 33°45' W 118°12'0 0.0
2017-Oct-08 10:58N 33°45' W 118°12'0 0.0
2017-Oct-08 10:28N 33°45' W 118°12'0 0.0
2017-Oct-08 09:58N 33°45' W 118°12'0 0.0
2017-Oct-08 09:28N 33°45' W 118°12'0 0.1
2017-Oct-08 09:01N 33°45' W 118°12'2 3.2
2017-Oct-08 08:30N 33°44' W 118°11'5 9.9
2017-Oct-08 08:00N 33°39' W 118°11'510.4
2017-Oct-08 07:31N 33°36' W 118°16'611.5
2017-Oct-08 07:00N 33°37' W 118°23'611.7
2017-Oct-08 06:30N 33°40' W 118°29'611.9
2017-Oct-08 06:00N 33°43' W 118°36'611.8
2017-Oct-08 05:30N 33°46' W 118°42'611.9
2017-Oct-08 05:00N 33°49' W 118°48'611.8
2017-Oct-08 04:30N 33°52' W 118°54'611.8
2017-Oct-08 04:00N 33°55' W 119°00'611.8
2017-Oct-08 03:30N 33°58' W 119°06'611.7
2017-Oct-08 03:00N 34°01' W 119°13'611.8
2017-Oct-08 02:30N 34°03' W 119°19'611.7
2017-Oct-08 02:00N 34°05' W 119°26'611.7
2017-Oct-08 01:30N 34°06' W 119°33'612.1
2017-Oct-08 01:00N 34°08' W 119°40'612.0
2017-Oct-08 00:30N 34°09' W 119°47'611.7
2017-Oct-07 23:59N 34°11' W 119°54'612.0
2017-Oct-07 23:30N 34°12' W 120°00'612.0
2017-Oct-07 23:00N 34°14' W 120°07'612.1
2017-Oct-07 22:29N 34°16' W 120°15'712.1
2017-Oct-07 21:56N 34°18' W 120°22'511.6
2017-Oct-07 21:28N 34°19' W 120°29'611.6
2017-Oct-07 21:00N 34°20' W 120°35'1611.4
2017-Oct-07 19:35N 34°25' W 120°54'311.7
2017-Oct-07 19:22N 34°27' W 120°55'412.2
2017-Oct-07 19:00N 34°32' W 120°57'611.3
2017-Oct-07 18:29N 34°37' W 120°60'612.4
2017-Oct-07 17:58N 34°43' W 121°03'511.4
2017-Oct-07 17:30N 34°48' W 121°05'611.9
2017-Oct-07 17:00N 34°53' W 121°08'611.4
2017-Oct-07 16:30N 34°59' W 121°10'611.8
2017-Oct-07 16:00N 35°03' W 121°15'611.8
2017-Oct-07 15:30N 35°08' W 121°20'611.5
2017-Oct-07 15:00N 35°12' W 121°24'611.8
2017-Oct-07 14:30N 35°16' W 121°29'611.7
2017-Oct-07 14:01N 35°21' W 121°34'612.2
2017-Oct-07 13:30N 35°25' W 121°39'711.7
2017-Oct-07 12:56N 35°30' W 121°45'511.6
2017-Oct-07 12:30N 35°34' W 121°49'612.0
2017-Oct-07 11:58N 35°38' W 121°54'612.1
2017-Oct-07 11:30N 35°43' W 121°59'612.0
2017-Oct-07 11:00N 35°47' W 122°04'611.5
2017-Oct-07 10:30N 35°51' W 122°08'611.8
2017-Oct-07 09:59N 35°56' W 122°14'611.9
2017-Oct-07 09:30N 36°00' W 122°18'611.6
2017-Oct-07 09:00N 36°04' W 122°23'612.0
2017-Oct-07 08:30N 36°09' W 122°28'611.9
2017-Oct-07 08:00N 36°13' W 122°33'611.9
2017-Oct-07 07:30N 36°18' W 122°38'611.8
2017-Oct-07 07:00N 36°22' W 122°43'611.8
2017-Oct-07 06:30N 36°26' W 122°48'613.1
2017-Oct-07 06:01N 36°31' W 122°53'713.7
2017-Oct-07 05:30N 36°36' W 122°59'713.6
2017-Oct-07 05:00N 36°41' W 123°05'713.6
2017-Oct-07 04:30N 36°46' W 123°11'713.6
2017-Oct-07 04:00N 36°51' W 123°16'713.6
2017-Oct-07 03:31N 36°56' W 123°22'713.8
2017-Oct-07 03:00N 37°01' W 123°28'713.8
2017-Oct-07 02:31N 37°07' W 123°33'713.7
2017-Oct-07 02:00N 37°13' W 123°37'713.8
2017-Oct-07 01:30N 37°19' W 123°41'714.0
2017-Oct-07 01:00N 37°25' W 123°45'713.8
2017-Oct-07 00:30N 37°32' W 123°49'713.7
2017-Oct-07 00:00N 37°38' W 123°52'714.1
2017-Oct-06 23:31N 37°44' W 123°56'713.8
2017-Oct-06 23:00N 37°50' W 124°00'713.4
2017-Oct-06 22:30N 37°56' W 124°04'713.6
2017-Oct-06 22:01N 38°02' W 124°08'713.9
2017-Oct-06 21:30N 38°08' W 124°12'713.8
2017-Oct-06 21:00N 38°15' W 124°16'713.4
2017-Oct-06 20:30N 38°21' W 124°20'713.8
2017-Oct-06 20:00N 38°27' W 124°24'713.4
2017-Oct-06 19:30N 38°33' W 124°28'713.5
2017-Oct-06 19:01N 38°39' W 124°32'713.7
2017-Oct-06 18:30N 38°45' W 124°35'713.9
2017-Oct-06 18:00N 38°52' W 124°38'713.6
2017-Oct-06 17:30N 38°58' W 124°41'713.4
2017-Oct-06 17:00N 39°04' W 124°44'612.9
2017-Oct-06 16:29N 39°11' W 124°47'612.3
2017-Oct-06 16:00N 39°16' W 124°49'15713.4
2017-Oct-06 04:17N 41°52' W 125°12'414.0
2017-Oct-06 04:00N 41°56' W 125°13'713.7
2017-Oct-06 03:30N 42°03' W 125°13'713.7
2017-Oct-06 03:00N 42°10' W 125°12'713.4
2017-Oct-06 02:31N 42°16' W 125°13'713.5
2017-Oct-06 02:00N 42°23' W 125°13'713.8
2017-Oct-06 01:30N 42°30' W 125°14'713.9
2017-Oct-06 01:00N 42°37' W 125°14'714.0
2017-Oct-06 00:30N 42°44' W 125°15'714.1
2017-Oct-06 00:00N 42°51' W 125°15'713.4
2017-Oct-05 23:30N 42°58' W 125°15'713.7
2017-Oct-05 23:00N 43°04' W 125°16'714.1
2017-Oct-05 22:30N 43°12' W 125°16'714.0
2017-Oct-05 22:00N 43°19' W 125°16'713.6
2017-Oct-05 21:30N 43°25' W 125°16'713.0
2017-Oct-05 21:00N 43°32' W 125°16'713.1
2017-Oct-05 20:30N 43°38' W 125°17'713.6
2017-Oct-05 19:59N 43°45' W 125°17'713.7
2017-Oct-05 19:30N 43°52' W 125°17'713.7
2017-Oct-05 19:01N 43°59' W 125°17'713.7
2017-Oct-05 18:31N 44°06' W 125°17'1013.5
2017-Oct-05 17:45N 44°16' W 125°18'313.6
2017-Oct-05 17:30N 44°19' W 125°18'713.5
2017-Oct-05 17:00N 44°26' W 125°18'2013.5
2017-Oct-05 15:30N 44°46' W 125°19'714.0
2017-Oct-05 15:01N 44°53' W 125°19'714.1
2017-Oct-05 14:31N 45°00' W 125°19'714.0
2017-Oct-05 14:00N 45°07' W 125°19'814.0
2017-Oct-05 13:28N 45°15' W 125°19'614.0
2017-Oct-05 13:01N 45°21' W 125°19'714.0
2017-Oct-05 12:31N 45°28' W 125°20'914.2
2017-Oct-05 11:51N 45°38' W 125°20'514.2
2017-Oct-05 11:31N 45°42' W 125°20'914.2
2017-Oct-05 10:51N 45°52' W 125°21'514.3
2017-Oct-05 10:31N 45°57' W 125°21'714.5
2017-Oct-05 10:01N 46°04' W 125°22'714.5
2017-Oct-05 09:31N 46°11' W 125°21'714.4
2017-Oct-05 09:01N 46°18' W 125°21'714.3
2017-Oct-05 08:30N 46°25' W 125°21'1014.1
2017-Oct-05 07:48N 46°35' W 125°22'414.1
2017-Oct-05 07:31N 46°40' W 125°22'714.1
2017-Oct-05 07:01N 46°47' W 125°22'714.0
2017-Oct-05 06:30N 46°54' W 125°22'1113.9
2017-Oct-05 05:42N 47°05' W 125°23'313.9
2017-Oct-05 05:30N 47°08' W 125°23'814.1
2017-Oct-05 04:56N 47°16' W 125°23'614.2
2017-Oct-05 04:30N 47°22' W 125°23'713.9
2017-Oct-05 04:00N 47°29' W 125°23'714.1
2017-Oct-05 03:30N 47°36' W 125°24'714.2
2017-Oct-05 03:01N 47°43' W 125°24'714.0
2017-Oct-05 02:30N 47°50' W 125°24'714.0
2017-Oct-05 02:00N 47°57' W 125°24'713.7
2017-Oct-05 01:30N 48°03' W 125°20'713.8
2017-Oct-05 01:00N 48°10' W 125°17'714.2
2017-Oct-05 00:30N 48°17' W 125°14'510.3
2017-Oct-05 00:00N 48°22' W 125°13'5 9.4
2017-Oct-04 23:30N 48°25' W 125°08'612.8
2017-Oct-04 23:00N 48°30' W 125°02'713.6
2017-Oct-04 22:30N 48°31' W 124°51'713.8
2017-Oct-04 22:00N 48°30' W 124°41'713.5
2017-Oct-04 21:31N 48°27' W 124°32'612.9
2017-Oct-04 21:00N 48°25' W 124°23'4 7.9
2017-Oct-04 20:30N 48°23' W 124°17'612.6
2017-Oct-04 20:00N 48°21' W 124°08'612.3
2017-Oct-04 19:30N 48°19' W 123°60'713.1
2017-Oct-04 19:00N 48°17' W 123°50'713.5
2017-Oct-04 18:30N 48°16' W 123°40'612.9
2017-Oct-04 18:00N 48°16' W 123°30'612.2
2017-Oct-04 17:30N 48°22' W 123°25'5 9.3
2017-Oct-04 17:01N 48°23' W 123°19'510.5
2017-Oct-04 16:31N 48°25' W 123°12'713.8
2017-Oct-04 16:00N 48°32' W 123°13'713.8
2017-Oct-04 15:30N 48°39' W 123°15'612.7
2017-Oct-04 15:00N 48°44' W 123°09'714.5
2017-Oct-04 14:30N 48°48' W 123°00'714.4
2017-Oct-04 14:00N 48°54' W 123°08'714.5
2017-Oct-04 13:30N 48°59' W 123°16'713.8
2017-Oct-04 13:00N 49°04' W 123°23'713.7
2017-Oct-04 12:30N 49°11' W 123°22'713.5
2017-Oct-04 12:00N 49°17' W 123°19'612.4
2017-Oct-04 11:30N 49°19' W 123°10'2 4.7
2017-Oct-04 10:59N 49°18' W 123°07'0 0.0
2017-Oct-04 10:29N 49°18' W 123°07'0 0.0
2017-Oct-04 09:59N 49°18' W 123°07'0 0.0
2017-Oct-04 09:29N 49°19' W 123°07'0 0.0
2017-Oct-04 08:59N 49°18' W 123°07'0 0.0
2017-Oct-04 08:29N 49°18' W 123°07'0 0.0
2017-Oct-04 07:59N 49°19' W 123°07'0 0.0
2017-Oct-04 07:29N 49°18' W 123°07'0 0.0
2017-Oct-04 06:59N 49°19' W 123°07'0 0.0
2017-Oct-04 06:29N 49°19' W 123°07'0 0.0
2017-Oct-04 05:59N 49°19' W 123°07'0 0.0
2017-Oct-04 05:29N 49°19' W 123°07'0 0.0
2017-Oct-04 04:59N 49°19' W 123°07'0 0.0
2017-Oct-04 04:29N 49°18' W 123°07'0 0.0
2017-Oct-04 03:59N 49°19' W 123°07'0 0.0
2017-Oct-04 03:29N 49°18' W 123°07'0 0.0
2017-Oct-04 02:59N 49°19' W 123°07'0 0.0
2017-Oct-04 02:29N 49°18' W 123°07'0 0.0
2017-Oct-04 01:59N 49°19' W 123°07'0 0.0
2017-Oct-04 01:29N 49°18' W 123°07'0 0.0
2017-Oct-04 00:59N 49°18' W 123°07'0 0.0
2017-Oct-04 00:29N 49°18' W 123°07'0 0.0
2017-Oct-03 23:59N 49°18' W 123°07'0 0.0
2017-Oct-03 23:29N 49°18' W 123°07'0 0.0
2017-Oct-03 22:59N 49°18' W 123°07'0 0.0
2017-Oct-03 22:29N 49°18' W 123°07'0 0.0
2017-Oct-03 21:59N 49°18' W 123°07'0 0.0
2017-Oct-03 21:29N 49°19' W 123°07'0 0.0
2017-Oct-03 20:59N 49°18' W 123°07'0 0.0
2017-Oct-03 20:29N 49°18' W 123°07'0 0.0
2017-Oct-03 19:59N 49°18' W 123°07'0 0.0
2017-Oct-03 19:29N 49°18' W 123°07'0 0.0
2017-Oct-03 18:59N 49°18' W 123°07'0 0.0
2017-Oct-03 18:29N 49°18' W 123°07'0 0.0
2017-Oct-03 17:59N 49°19' W 123°07'0 0.0
2017-Oct-03 17:29N 49°19' W 123°07'0 0.0
2017-Oct-03 16:59N 49°19' W 123°07'0 0.0
2017-Oct-03 16:29N 49°18' W 123°07'0 0.0
2017-Oct-03 15:59N 49°18' W 123°07'0 0.0
2017-Oct-03 15:29N 49°18' W 123°07'0 0.0
2017-Oct-03 14:59N 49°18' W 123°07'0 0.0
2017-Oct-03 13:59N 49°18' W 123°07'0 0.0
2017-Oct-03 13:29N 49°18' W 123°07'0 0.0
2017-Oct-03 12:59N 49°18' W 123°07'0 0.0
2017-Oct-03 12:29N 49°19' W 123°07'0 0.0
2017-Oct-03 11:59N 49°18' W 123°07'0 0.0
2017-Oct-03 11:29N 49°18' W 123°07'0 0.0
2017-Oct-03 10:59N 49°19' W 123°07'0 0.0
2017-Oct-03 10:29N 49°19' W 123°07'0 0.0
2017-Oct-03 09:59N 49°18' W 123°07'0 0.0
2017-Oct-03 09:29N 49°19' W 123°07'0 0.0
2017-Oct-03 08:59N 49°19' W 123°07'0 0.0
2017-Oct-03 08:29N 49°18' W 123°07'0 0.0
2017-Oct-03 07:59N 49°18' W 123°07'0 0.0
2017-Oct-03 07:29N 49°19' W 123°07'0 0.0
2017-Oct-03 06:59N 49°18' W 123°07'0 0.0
2017-Oct-03 06:29N 49°18' W 123°07'0 0.0
2017-Oct-03 05:59N 49°18' W 123°07'0 0.0
2017-Oct-03 05:29N 49°18' W 123°07'0 0.0
2017-Oct-03 04:59N 49°19' W 123°07'0 0.0
2017-Oct-03 04:29N 49°18' W 123°07'0 0.0
2017-Oct-03 03:59N 49°18' W 123°07'0 0.0
2017-Oct-03 03:29N 49°19' W 123°07'0 0.0
2017-Oct-03 02:59N 49°18' W 123°07'0 0.0
2017-Oct-03 02:26N 49°19' W 123°07'0 0.0
2017-Oct-03 01:59N 49°18' W 123°07'0 0.0
2017-Oct-03 01:29N 49°18' W 123°07'0 0.0
2017-Oct-03 00:59N 49°18' W 123°07'0 0.0
2017-Oct-03 00:29N 49°19' W 123°07'0 0.0
2017-Oct-02 23:59N 49°19' W 123°07'0 0.0
2017-Oct-02 23:29N 49°18' W 123°07'0 0.0
2017-Oct-02 22:59N 49°18' W 123°07'0 0.0
2017-Oct-02 22:29N 49°18' W 123°07'0 0.0
2017-Oct-02 21:56N 49°19' W 123°07'0 0.0
2017-Oct-02 21:29N 49°19' W 123°07'0 0.0
2017-Oct-02 20:59N 49°18' W 123°07'0 0.1
2017-Oct-02 20:29N 49°19' W 123°06'0 0.0
2017-Oct-02 19:59N 49°19' W 123°06'0 0.0
2017-Oct-02 19:29N 49°19' W 123°06'0 0.0
2017-Oct-02 18:59N 49°19' W 123°06'0 0.0
2017-Oct-02 18:29N 49°19' W 123°06'0 0.0
2017-Oct-02 17:59N 49°19' W 123°06'0 0.0
2017-Oct-02 17:29N 49°19' W 123°06'0 0.0
2017-Oct-02 16:59N 49°19' W 123°06'0 0.0
2017-Oct-02 16:29N 49°19' W 123°06'0 0.0
2017-Oct-02 15:59N 49°19' W 123°06'0 0.0
2017-Oct-02 15:29N 49°19' W 123°06'0 0.0
2017-Oct-02 14:59N 49°19' W 123°06'0 0.0
2017-Oct-02 14:29N 49°19' W 123°06'0 0.0
2017-Oct-02 13:59N 49°19' W 123°06'0 0.0
2017-Oct-02 13:29N 49°19' W 123°06'0 0.0
2017-Oct-02 12:59N 49°19' W 123°06'0 0.0
2017-Oct-02 12:29N 49°19' W 123°06'0 0.0
2017-Oct-02 11:59N 49°19' W 123°06'0 0.0
2017-Oct-02 11:29N 49°19' W 123°06'0 0.0
2017-Oct-02 10:59N 49°19' W 123°06'0 0.0
2017-Oct-02 10:29N 49°19' W 123°06'0 0.0
2017-Oct-02 09:59N 49°19' W 123°06'0 0.0
2017-Oct-02 09:29N 49°19' W 123°06'0 0.0
2017-Oct-02 08:59N 49°19' W 123°06'0 0.0
2017-Oct-02 08:29N 49°19' W 123°06'0 0.0
2017-Oct-02 07:59N 49°19' W 123°06'0 0.0
2017-Oct-02 07:29N 49°19' W 123°06'0 0.0
2017-Oct-02 06:59N 49°19' W 123°06'0 0.0
2017-Oct-02 06:29N 49°19' W 123°06'0 0.0
2017-Oct-02 05:59N 49°19' W 123°06'0 0.0
2017-Oct-02 05:29N 49°19' W 123°06'0 0.0
2017-Oct-02 04:59N 49°19' W 123°06'0 0.0
2017-Oct-02 04:29N 49°19' W 123°06'0 0.0
2017-Oct-02 03:59N 49°19' W 123°06'0 0.0
2017-Oct-02 03:29N 49°19' W 123°06'0 0.0
2017-Oct-02 02:59N 49°19' W 123°06'0 0.0
2017-Oct-02 02:29N 49°19' W 123°06'0 0.0
2017-Oct-02 01:59N 49°19' W 123°06'0 0.0
2017-Oct-02 01:29N 49°19' W 123°06'0 0.0
2017-Oct-02 00:59N 49°19' W 123°06'0 0.0
2017-Oct-02 00:29N 49°19' W 123°06'0 0.0
2017-Oct-01 23:59N 49°19' W 123°06'0 0.0
2017-Oct-01 23:29N 49°19' W 123°06'0 0.0
2017-Oct-01 22:59N 49°19' W 123°06'0 0.0
2017-Oct-01 22:29N 49°19' W 123°06'0 0.0
2017-Oct-01 21:59N 49°19' W 123°06'0 0.0
2017-Oct-01 21:29N 49°19' W 123°06'0 0.0
2017-Oct-01 20:59N 49°19' W 123°06'0 0.0
2017-Oct-01 20:29N 49°19' W 123°06'0 0.0
2017-Oct-01 19:59N 49°19' W 123°06'0 0.0
2017-Oct-01 19:29N 49°19' W 123°06'0 0.0
2017-Oct-01 18:59N 49°19' W 123°06'0 0.0
2017-Oct-01 18:29N 49°19' W 123°06'0 0.0
2017-Oct-01 17:59N 49°19' W 123°06'0 0.0
2017-Oct-01 17:29N 49°19' W 123°06'0 0.0
2017-Oct-01 16:59N 49°19' W 123°06'0 0.0
2017-Oct-01 16:29N 49°19' W 123°06'0 0.0
2017-Oct-01 15:59N 49°19' W 123°06'0 0.0
2017-Oct-01 15:29N 49°19' W 123°06'0 0.0
2017-Oct-01 14:59N 49°19' W 123°06'0 0.0
2017-Oct-01 14:29N 49°19' W 123°06'0 0.0
2017-Oct-01 13:59N 49°19' W 123°06'0 0.0
2017-Oct-01 13:29N 49°19' W 123°06'0 0.0
2017-Oct-01 12:59N 49°19' W 123°06'0 0.0
2017-Oct-01 12:29N 49°19' W 123°06'0 0.0
2017-Oct-01 11:59N 49°19' W 123°06'0 0.0
2017-Oct-01 11:29N 49°19' W 123°06'0 0.0
2017-Oct-01 10:59N 49°19' W 123°06'0 0.0
2017-Oct-01 10:29N 49°19' W 123°06'0 0.0
2017-Oct-01 09:59N 49°19' W 123°06'0 0.0
2017-Oct-01 09:29N 49°19' W 123°06'0 0.0
2017-Oct-01 08:59N 49°19' W 123°06'0 0.0
2017-Oct-01 08:29N 49°19' W 123°06'0 0.0
2017-Oct-01 07:59N 49°19' W 123°06'0 0.0
2017-Oct-01 07:29N 49°19' W 123°06'0 0.0
2017-Oct-01 06:59N 49°19' W 123°06'0 0.0
2017-Oct-01 06:29N 49°19' W 123°06'0 0.0
2017-Oct-01 05:59N 49°19' W 123°06'0 0.0
2017-Oct-01 05:29N 49°19' W 123°06'0 0.0
2017-Oct-01 04:59N 49°19' W 123°06'0 0.0
2017-Oct-01 04:29N 49°19' W 123°06'0 0.0
2017-Oct-01 03:59N 49°19' W 123°06'0 0.0
2017-Oct-01 03:29N 49°19' W 123°06'0 0.0
2017-Oct-01 02:59N 49°19' W 123°06'  

Dump ship's entire track history